Time;durP1;ratioP1;P1;durP2;ratioP2;P2;SDS_P1;SDS_P2;PMS_P1;PMS_P2;Temp;Humidity;BMP_temperature;BMP_pressure;BME280_temperature;BME280_humidity;BME280_pressure;Samples;Min_cycle;Max_cycle;Signal;HPM_P1;HPM_P2
2022/12/21 00:01:35;;;;;;;10.23;8.60;;;9.40;99.90;;;;;;5048891;28;20232;-51
2022/12/21 00:04:04;;;;;;;9.70;7.97;;;9.60;99.90;;;;;;5032221;28;20263;-52
2022/12/21 00:06:35;;;;;;;10.27;8.63;;;9.60;99.90;;;;;;5032453;28;20609;-51
2022/12/21 00:09:13;;;;;;;10.80;8.47;;;9.70;99.90;;;;;;5032547;28;20232;-51
2022/12/21 00:11:42;;;;;;;11.53;9.67;;;9.60;99.90;;;;;;5040269;28;20683;-50
2022/12/21 00:14:10;;;;;;;10.57;8.83;;;9.60;99.90;;;;;;5044550;28;20251;-51
2022/12/21 00:16:40;;;;;;;10.37;8.23;;;9.50;99.90;;;;;;5052238;28;20236;-50
2022/12/21 00:19:09;;;;;;;9.43;7.90;;;9.40;99.90;;;;;;5048350;28;20241;-49
2022/12/21 00:21:38;;;;;;;8.63;7.73;;;9.40;99.90;;;;;;5036074;28;20229;-53
2022/12/21 00:24:07;;;;;;;9.70;8.63;;;9.40;99.90;;;;;;5036113;28;20734;-50
2022/12/21 00:26:37;;;;;;;11.03;9.03;;;9.30;99.90;;;;;;5036023;28;20241;-53
2022/12/21 00:29:05;;;;;;;12.47;9.13;;;9.30;99.90;;;;;;5046976;28;20583;-50
2022/12/21 00:31:36;;;;;;;10.63;9.33;;;9.20;99.90;;;;;;5034486;28;20237;-51
2022/12/21 00:34:04;;;;;;;9.60;8.40;;;9.30;99.90;;;;;;5017882;28;20686;-51
2022/12/21 00:36:33;;;;;;;9.47;8.47;;;9.30;99.90;;;;;;5035879;28;20222;-48
2022/12/21 00:39:03;;;;;;;9.43;8.37;;;9.20;99.90;;;;;;5035800;28;20216;-52
2022/12/21 00:41:31;;;;;;;11.00;8.77;;;9.20;99.90;;;;;;5041879;28;20695;-51
2022/12/21 00:43:59;;;;;;;10.33;9.00;;;9.30;99.90;;;;;;5029404;28;20238;-50
2022/12/21 00:46:29;;;;;;;9.40;7.97;;;9.30;99.90;;;;;;5055584;28;20220;-49
2022/12/21 00:48:58;;;;;;;10.83;8.80;;;9.20;99.90;;;;;;5041480;28;20230;-52
2022/12/21 00:51:28;;;;;;;11.07;9.23;;;9.10;99.90;;;;;;5035386;28;20244;-51
2022/12/21 00:53:58;;;;;;;9.97;8.53;;;9.20;99.90;;;;;;5034195;28;20235;-51
2022/12/21 00:56:29;;;;;;;12.77;9.23;;;9.30;99.90;;;;;;5035151;28;20283;-49
2022/12/21 00:58:57;;;;;;;10.97;8.67;;;9.50;99.90;;;;;;5045280;28;20248;-51
2022/12/21 01:01:28;;;;;;;11.73;9.67;;;9.50;99.90;;;;;;5035196;28;20276;-50
2022/12/21 01:03:57;;;;;;;12.73;9.97;;;9.50;99.90;;;;;;5017334;28;20240;-52
2022/12/21 01:06:27;;;;;;;13.73;9.33;;;9.40;99.90;;;;;;5035132;28;20225;-52
2022/12/21 01:08:56;;;;;;;13.03;10.03;;;9.40;99.90;;;;;;5035054;28;20240;-52
2022/12/21 01:11:27;;;;;;;12.90;8.93;;;9.50;99.90;;;;;;5040575;28;20220;-52
2022/12/21 01:13:57;;;;;;;13.60;10.40;;;9.50;99.90;;;;;;5046445;28;20224;-50
2022/12/21 01:16:27;;;;;;;10.73;8.87;;;9.50;99.90;;;;;;5054877;28;20225;-47
2022/12/21 01:18:57;;;;;;;12.23;9.23;;;9.30;99.90;;;;;;5061276;28;20690;-51
2022/12/21 01:21:27;;;;;;;10.77;8.80;;;9.30;99.90;;;;;;5074833;28;20216;-51
2022/12/21 01:23:57;;;;;;;11.27;8.67;;;9.20;99.90;;;;;;5074869;28;20675;-50
2022/12/21 01:26:25;;;;;;;10.83;8.30;;;9.30;99.90;;;;;;5072736;28;20227;-51
2022/12/21 01:28:54;;;;;;;12.43;9.23;;;9.30;99.90;;;;;;5053986;28;20277;-49
2022/12/21 01:31:23;;;;;;;11.73;9.13;;;9.40;99.90;;;;;;5036025;28;20240;-51
2022/12/21 01:33:52;;;;;;;13.93;9.83;;;9.40;99.90;;;;;;5054407;28;20230;-49
2022/12/21 01:36:20;;;;;;;13.93;9.90;;;9.50;99.90;;;;;;5036634;28;20231;-51
2022/12/21 01:38:49;;;;;;;13.47;9.03;;;9.50;99.90;;;;;;5054628;28;20227;-52
2022/12/21 01:41:19;;;;;;;15.13;11.33;;;9.50;99.90;;;;;;5054378;28;20259;-51
2022/12/21 01:43:49;;;;;;;12.43;9.63;;;9.30;99.90;;;;;;5054104;28;20236;-49
2022/12/21 01:46:22;;;;;;;13.13;9.77;;;9.40;99.90;;;;;;5054456;28;20220;-51
2022/12/21 01:48:57;;;;;;;15.10;10.73;;;9.50;99.90;;;;;;5068559;28;20229;-51
2022/12/21 01:51:26;;;;;;;13.50;10.77;;;9.50;99.90;;;;;;5056545;28;20232;-52
2022/12/21 01:54:00;;;;;;;11.97;9.73;;;9.50;99.90;;;;;;5074261;28;20290;-51
2022/12/21 01:56:32;;;;;;;14.70;10.77;;;9.50;99.90;;;;;;5071619;28;20227;-52
2022/12/21 01:59:07;;;;;;;14.43;11.00;;;9.40;99.90;;;;;;5036063;28;20235;-49
2022/12/21 02:01:37;;;;;;;12.60;9.57;;;9.30;99.90;;;;;;5035689;28;20243;-50
2022/12/21 02:04:08;;;;;;;13.70;10.63;;;9.20;99.90;;;;;;5053773;28;20224;-51
2022/12/21 02:06:42;;;;;;;11.83;8.63;;;9.10;99.90;;;;;;5054103;28;20243;-51
2022/12/21 02:09:10;;;;;;;12.67;9.33;;;9.10;99.90;;;;;;5053899;28;20232;-51
2022/12/21 02:11:38;;;;;;;13.37;10.17;;;9.10;99.90;;;;;;5053567;28;20873;-51
2022/12/21 02:14:11;;;;;;;15.33;10.70;;;9.10;99.90;;;;;;5053813;28;20224;-51
2022/12/21 02:16:49;;;;;;;14.77;10.07;;;9.10;99.90;;;;;;5053791;28;20251;-50
2022/12/21 02:19:53;;;;;;;14.77;10.77;;;9.10;99.90;;;;;;5050098;28;20565;-51
2022/12/21 02:22:35;;;;;;;13.10;10.23;;;9.00;99.90;;;;;;5053652;28;20221;-52
2022/12/21 02:25:28;;;;;;;14.70;10.27;;;8.90;99.90;;;;;;5053559;28;20228;-52
2022/12/21 02:28:31;;;;;;;16.07;10.57;;;9.10;99.90;;;;;;5043908;28;20239;-50
2022/12/21 02:31:09;;;;;;;12.87;9.30;;;9.20;99.90;;;;;;5011320;28;20584;-50
2022/12/21 02:34:02;;;;;;;15.70;10.40;;;9.20;99.90;;;;;;5043648;28;20583;-51
2022/12/21 02:36:37;;;;;;;13.27;9.83;;;9.20;99.90;;;;;;5033591;28;20224;-50
2022/12/21 02:39:16;;;;;;;13.63;9.03;;;9.00;99.90;;;;;;5033451;28;20220;-52
2022/12/21 02:41:53;;;;;;;14.33;9.47;;;9.10;99.90;;;;;;5059347;28;21879;-51
2022/12/21 02:44:38;;;;;;;12.47;9.43;;;9.10;99.90;;;;;;5053581;28;20319;-52
2022/12/21 02:47:13;;;;;;;14.73;9.80;;;9.10;99.90;;;;;;5053071;28;20684;-52
2022/12/21 02:49:47;;;;;;;14.77;10.50;;;8.90;99.90;;;;;;5052957;28;20219;-51
2022/12/21 02:52:21;;;;;;;14.63;10.10;;;8.90;99.90;;;;;;5031933;28;20232;-52
2022/12/21 02:54:54;;;;;;;14.67;10.47;;;9.00;99.90;;;;;;5031771;28;20320;-52
2022/12/21 02:57:31;;;;;;;16.53;10.53;;;8.90;99.90;;;;;;5069572;28;20631;-52
2022/12/21 03:00:01;;;;;;;15.43;11.03;;;9.00;99.90;;;;;;5050268;28;20228;-50
2022/12/21 03:06:01;;;;;;;15.20;10.43;;;9.00;99.90;;;;;;5030787;28;20224;-50
2022/12/21 03:08:38;;;;;;;19.87;12.50;;;9.10;99.90;;;;;;5048116;28;20436;-51
2022/12/21 03:11:07;;;;;;;16.50;11.70;;;9.00;99.90;;;;;;5050804;28;20223;-52
2022/12/21 03:13:44;;;;;;;17.33;11.83;;;9.00;99.90;;;;;;5051339;28;20266;-51
2022/12/21 03:16:17;;;;;;;16.43;11.43;;;8.80;99.90;;;;;;5051729;28;20235;-51
2022/12/21 03:18:57;;;;;;;18.23;11.87;;;8.80;99.90;;;;;;5051196;28;20338;-50
2022/12/21 03:21:32;;;;;;;17.13;11.90;;;8.90;99.90;;;;;;5052991;28;20230;-51
2022/12/21 03:24:05;;;;;;;18.00;11.57;;;8.70;99.90;;;;;;5053014;28;20231;-52
2022/12/21 03:26:37;;;;;;;20.10;11.87;;;8.70;99.90;;;;;;5052451;28;20235;-52
2022/12/21 03:29:08;;;;;;;21.13;13.00;;;8.70;99.90;;;;;;5052321;28;20251;-48
2022/12/21 03:31:41;;;;;;;19.60;12.87;;;8.70;99.90;;;;;;5052037;28;20247;-49
2022/12/21 03:34:17;;;;;;;19.67;13.13;;;8.60;99.90;;;;;;5044273;28;20228;-51
2022/12/21 03:36:50;;;;;;;20.37;13.40;;;8.70;99.90;;;;;;5052539;28;20235;-49
2022/12/21 03:39:23;;;;;;;21.47;13.77;;;8.80;99.90;;;;;;5052831;28;20236;-50
2022/12/21 03:41:56;;;;;;;18.40;11.60;;;8.70;99.90;;;;;;5052297;28;20237;-50
2022/12/21 03:44:29;;;;;;;19.43;12.63;;;8.70;99.90;;;;;;5052612;28;20227;-50
2022/12/21 03:47:00;;;;;;;21.63;12.93;;;8.60;99.90;;;;;;5052557;28;20231;-51
2022/12/21 03:49:34;;;;;;;19.27;11.20;;;8.70;99.90;;;;;;5052160;28;20230;-52
2022/12/21 03:52:07;;;;;;;19.40;12.73;;;8.60;99.90;;;;;;5053430;28;20627;-51
2022/12/21 03:54:42;;;;;;;20.20;11.70;;;8.40;99.90;;;;;;5056944;28;20238;-51
2022/12/21 03:57:11;;;;;;;21.27;12.97;;;8.30;99.90;;;;;;5056375;28;20251;-50
2022/12/21 03:59:42;;;;;;;20.80;12.60;;;8.20;99.90;;;;;;5056297;28;20307;-51
2022/12/21 04:02:16;;;;;;;24.43;13.87;;;8.30;99.90;;;;;;5055947;28;20625;-51
2022/12/21 04:04:53;;;;;;;20.37;11.93;;;8.30;99.90;;;;;;5055967;28;20229;-51
2022/12/21 04:07:24;;;;;;;23.00;12.33;;;8.40;99.90;;;;;;5056139;28;20236;-51
2022/12/21 04:09:57;;;;;;;20.33;11.90;;;8.20;99.90;;;;;;5036532;28;20299;-49
2022/12/21 04:12:38;;;;;;;19.97;12.70;;;8.10;99.90;;;;;;5053389;28;20576;-48
2022/12/21 04:15:09;;;;;;;24.73;12.57;;;8.10;99.90;;;;;;5056318;28;20232;-51
2022/12/21 04:17:37;;;;;;;18.83;11.03;;;8.00;99.90;;;;;;5056193;28;20232;-51
2022/12/21 04:20:08;;;;;;;18.93;11.77;;;8.00;99.90;;;;;;5036307;28;20224;-50
2022/12/21 04:28:15;;;;;;;16.83;10.40;;;8.20;99.90;;;;;;5036014;28;20228;-51
2022/12/21 04:31:03;;;;;;;16.70;11.77;;;8.30;99.90;;;;;;5034778;28;20441;-51
2022/12/21 04:33:31;;;;;;;16.20;10.20;;;8.10;99.90;;;;;;5035891;28;20220;-51
2022/12/21 04:38:46;;;;;;;15.97;8.93;;;8.10;99.90;;;;;;5035583;28;20221;-51
2022/12/21 04:41:14;;;;;;;17.13;10.00;;;8.00;99.90;;;;;;5035600;28;20295;-52
2022/12/21 04:43:43;;;;;;;16.63;9.20;;;8.00;99.90;;;;;;5035612;28;20692;-52
2022/12/21 04:46:13;;;;;;;24.93;11.73;;;8.00;99.90;;;;;;5035399;28;20326;-50
2022/12/21 04:48:42;;;;;;;15.00;9.90;;;7.90;99.90;;;;;;5017633;28;20316;-48
2022/12/21 04:51:14;;;;;;;16.70;10.27;;;8.00;99.90;;;;;;5035677;28;20251;-50
2022/12/21 04:53:43;;;;;;;20.40;10.60;;;8.00;99.90;;;;;;5035351;28;20232;-52
2022/12/21 04:56:11;;;;;;;20.60;11.00;;;7.90;99.90;;;;;;5035572;28;20232;-51
2022/12/21 04:58:40;;;;;;;22.13;11.00;;;8.00;99.90;;;;;;5030872;28;20228;-50
2022/12/21 05:01:09;;;;;;;20.90;11.40;;;8.10;99.90;;;;;;5035058;28;20241;-48
2022/12/21 05:03:38;;;;;;;21.30;12.03;;;8.00;99.90;;;;;;5034460;28;20581;-51
2022/12/21 05:06:07;;;;;;;18.70;11.80;;;8.00;99.90;;;;;;5023404;28;20229;-52
2022/12/21 05:08:37;;;;;;;22.00;12.53;;;7.90;99.90;;;;;;5032005;28;20260;-49
2022/12/21 05:11:10;;;;;;;21.20;12.80;;;7.90;99.90;;;;;;5024714;28;20707;-52
2022/12/21 05:13:38;;;;;;;19.60;11.13;;;7.80;99.90;;;;;;5035122;28;20232;-53
2022/12/21 05:16:08;;;;;;;19.50;11.23;;;7.90;99.90;;;;;;5034931;28;20235;-51
2022/12/21 05:18:37;;;;;;;21.10;11.40;;;8.00;99.90;;;;;;5043096;28;20267;-49
2022/12/21 05:21:05;;;;;;;19.43;10.87;;;7.80;99.90;;;;;;5054942;28;20220;-51
2022/12/21 05:23:34;;;;;;;19.37;12.20;;;8.00;99.90;;;;;;5054907;28;20570;-50
2022/12/21 05:26:05;;;;;;;17.80;10.90;;;8.00;99.90;;;;;;5055101;28;20224;-51
2022/12/21 05:28:43;;;;;;;20.80;11.67;;;8.00;99.90;;;;;;5039368;28;20628;-51
2022/12/21 05:31:12;;;;;;;21.63;12.63;;;8.00;99.90;;;;;;5032314;28;20611;-51
2022/12/21 05:33:40;;;;;;;19.87;11.30;;;7.90;99.90;;;;;;5034658;28;20221;-52
2022/12/21 05:36:11;;;;;;;20.27;11.20;;;8.00;99.90;;;;;;5034532;28;20225;-51
2022/12/21 05:38:39;;;;;;;27.27;11.37;;;8.10;99.90;;;;;;5014811;28;20218;-50
2022/12/21 05:41:09;;;;;;;19.23;11.10;;;7.90;99.90;;;;;;5024369;28;20227;-51
2022/12/21 05:43:37;;;;;;;18.03;10.40;;;7.90;99.90;;;;;;5044341;28;20228;-51
2022/12/21 05:46:07;;;;;;;21.40;11.73;;;7.80;99.90;;;;;;5034561;28;20239;-49
2022/12/21 05:48:37;;;;;;;16.90;11.00;;;7.80;99.90;;;;;;5034238;28;20319;-47
2022/12/21 05:51:09;;;;;;;19.67;11.50;;;7.80;99.90;;;;;;5034294;28;20235;-51
2022/12/21 05:53:40;;;;;;;17.40;11.57;;;7.80;99.90;;;;;;5034117;28;20229;-51
2022/12/21 05:56:10;;;;;;;16.70;11.20;;;7.80;99.90;;;;;;5034549;28;20224;-51
2022/12/21 05:58:39;;;;;;;16.47;10.60;;;7.70;99.90;;;;;;5038097;28;20232;-52
2022/12/21 06:01:09;;;;;;;19.03;11.13;;;7.60;99.90;;;;;;5036579;28;20232;-50
2022/12/21 06:03:37;;;;;;;17.23;10.60;;;7.70;99.90;;;;;;5033933;28;20235;-52
2022/12/21 06:06:08;;;;;;;17.03;11.13;;;7.60;99.90;;;;;;5034224;28;20235;-50
2022/12/21 06:08:37;;;;;;;22.30;11.50;;;7.50;99.90;;;;;;5033722;28;20234;-51
2022/12/21 06:11:07;;;;;;;22.60;11.90;;;7.40;99.90;;;;;;5033316;28;20722;-49
2022/12/21 06:13:37;;;;;;;22.60;11.67;;;7.40;99.90;;;;;;5039309;28;20577;-51
2022/12/21 06:16:09;;;;;;;18.37;11.77;;;7.40;99.90;;;;;;5032443;28;20229;-51
2022/12/21 06:18:39;;;;;;;21.23;12.40;;;7.30;99.90;;;;;;5029177;28;20262;-51
2022/12/21 06:21:09;;;;;;;18.07;11.27;;;7.40;99.90;;;;;;5051211;28;20228;-50
2022/12/21 06:23:37;;;;;;;17.27;11.83;;;7.30;99.90;;;;;;5053525;28;20235;-50
2022/12/21 06:26:07;;;;;;;13.57;10.33;;;7.30;99.90;;;;;;5053969;28;20600;-51
2022/12/21 06:28:36;;;;;;;27.37;10.50;;;7.30;99.90;;;;;;5052932;28;20703;-51
2022/12/21 06:31:07;;;;;;;17.93;10.67;;;7.20;99.90;;;;;;5052941;28;20235;-51
2022/12/21 06:33:36;;;;;;;20.60;10.40;;;7.20;99.90;;;;;;5053134;28;20216;-50
2022/12/21 06:36:05;;;;;;;13.63;9.37;;;7.20;99.90;;;;;;5053532;28;20242;-52
2022/12/21 06:38:34;;;;;;;15.80;10.93;;;7.30;99.90;;;;;;5052966;28;20234;-48
2022/12/21 06:41:04;;;;;;;14.00;10.93;;;7.30;99.90;;;;;;5053703;28;20699;-51
2022/12/21 06:43:35;;;;;;;14.70;9.43;;;7.20;99.90;;;;;;5053205;28;20235;-51
2022/12/21 06:46:07;;;;;;;14.07;9.93;;;7.20;99.90;;;;;;5052828;28;20651;-51
2022/12/21 06:48:36;;;;;;;14.17;10.30;;;7.40;99.90;;;;;;5053085;28;20260;-51
2022/12/21 06:51:06;;;;;;;14.07;9.77;;;7.40;99.90;;;;;;5052918;28;20240;-48
2022/12/21 06:53:36;;;;;;;14.17;10.33;;;7.30;99.90;;;;;;5052628;28;20688;-50
2022/12/21 06:56:06;;;;;;;12.57;9.53;;;7.20;99.90;;;;;;5052691;28;20315;-49
2022/12/21 06:58:42;;;;;;;13.73;9.17;;;7.30;99.90;;;;;;5048880;28;20223;-52
2022/12/21 07:01:13;;;;;;;12.17;8.80;;;7.40;99.90;;;;;;5049449;28;20228;-51
2022/12/21 07:03:42;;;;;;;11.33;8.30;;;7.50;99.90;;;;;;5049240;28;20223;-50
2022/12/21 07:06:13;;;;;;;13.87;9.80;;;7.50;99.90;;;;;;5053183;28;20306;-52
2022/12/21 07:08:42;;;;;;;19.30;9.33;;;7.50;99.90;;;;;;5052458;28;20595;-51
2022/12/21 07:11:11;;;;;;;16.87;9.90;;;7.60;99.90;;;;;;5052745;28;20231;-52
2022/12/21 07:13:41;;;;;;;19.27;9.20;;;7.40;99.90;;;;;;5053051;28;20235;-51
2022/12/21 07:16:12;;;;;;;13.50;10.03;;;7.30;99.90;;;;;;5053133;28;20591;-51
2022/12/21 07:18:41;;;;;;;16.03;10.67;;;7.20;99.90;;;;;;5051660;28;20291;-50
2022/12/21 07:21:13;;;;;;;17.67;12.83;;;7.10;99.90;;;;;;5051365;28;20208;-52
2022/12/21 07:23:42;;;;;;;18.50;13.03;;;7.10;99.90;;;;;;5052713;28;20224;-50
2022/12/21 07:26:13;;;;;;;21.97;13.37;;;7.00;99.90;;;;;;5053043;28;20228;-49
2022/12/21 07:28:43;;;;;;;17.27;12.27;;;7.00;99.90;;;;;;5047479;28;20629;-52
2022/12/21 07:31:15;;;;;;;19.63;12.03;;;7.10;99.90;;;;;;5049258;28;20224;-51
2022/12/21 07:33:44;;;;;;;15.37;11.50;;;7.00;99.90;;;;;;5048651;28;20228;-49
2022/12/21 07:36:13;;;;;;;20.70;11.20;;;7.10;99.90;;;;;;5052486;28;20220;-50
2022/12/21 07:38:42;;;;;;;18.30;11.10;;;7.00;99.90;;;;;;5051326;28;20258;-49
2022/12/21 07:41:12;;;;;;;14.73;9.87;;;7.00;99.90;;;;;;5051868;28;20235;-48
2022/12/21 07:43:41;;;;;;;35.37;12.00;;;7.10;99.90;;;;;;5044747;28;20292;-48
2022/12/21 07:46:20;;;;;;;37.83;11.77;;;7.00;99.90;;;;;;5062402;28;20223;-54
2022/12/21 07:48:50;;;;;;;29.80;11.93;;;6.90;99.90;;;;;;5078012;28;20646;-53
2022/12/21 07:51:19;;;;;;;21.47;12.03;;;6.90;99.90;;;;;;5064212;28;20215;-51
2022/12/21 07:53:47;;;;;;;23.20;11.67;;;7.00;99.90;;;;;;5063697;28;20215;-53
2022/12/21 07:56:17;;;;;;;20.77;12.77;;;7.00;99.90;;;;;;5063068;28;20239;-52
2022/12/21 07:58:46;;;;;;;24.23;12.93;;;7.10;99.90;;;;;;5064444;28;20220;-49
2022/12/21 08:01:16;;;;;;;36.70;16.23;;;7.20;99.90;;;;;;5063761;28;20756;-51
2022/12/21 08:03:47;;;;;;;29.33;13.53;;;7.10;99.90;;;;;;5064920;28;20227;-51
2022/12/21 08:06:16;;;;;;;24.23;13.17;;;7.20;99.90;;;;;;5066578;28;20710;-49
2022/12/21 08:08:44;;;;;;;33.60;14.87;;;7.30;99.90;;;;;;5065601;28;20607;-50
2022/12/21 08:11:14;;;;;;;24.47;13.00;;;7.20;99.90;;;;;;5065220;28;20709;-51
2022/12/21 08:13:43;;;;;;;25.73;13.00;;;7.30;99.90;;;;;;5066307;28;20223;-51
2022/12/21 08:16:13;;;;;;;21.23;12.30;;;7.30;99.90;;;;;;5057302;28;20231;-50
2022/12/21 08:18:41;;;;;;;22.37;12.13;;;7.30;99.90;;;;;;5051844;28;20627;-52
2022/12/21 08:21:11;;;;;;;25.80;14.37;;;7.30;99.90;;;;;;5051957;28;21014;-51
2022/12/21 08:23:39;;;;;;;25.97;13.87;;;7.40;99.90;;;;;;5051746;28;20216;-53
2022/12/21 08:26:09;;;;;;;26.77;12.77;;;7.30;99.90;;;;;;5051751;28;20306;-48
2022/12/21 08:28:37;;;;;;;24.17;13.47;;;7.30;99.90;;;;;;5049094;28;20228;-52
2022/12/21 08:31:07;;;;;;;25.40;14.53;;;7.30;99.90;;;;;;5051266;28;20703;-51
2022/12/21 08:33:35;;;;;;;27.20;14.30;;;7.20;99.90;;;;;;5051398;28;20242;-52
2022/12/21 08:36:04;;;;;;;25.03;14.63;;;7.10;99.90;;;;;;5051556;28;20274;-48
2022/12/21 08:38:34;;;;;;;26.40;15.33;;;7.10;99.90;;;;;;5052022;28;20216;-49
2022/12/21 08:41:22;;;;;;;27.17;14.27;;;7.10;99.90;;;;;;5055587;28;20226;-48
2022/12/21 08:43:50;;;;;;;25.17;14.37;;;7.10;99.90;;;;;;5054503;28;20224;-51
2022/12/21 08:46:18;;;;;;;28.50;14.03;;;7.20;99.90;;;;;;5052731;28;20223;-52
2022/12/21 08:48:46;;;;;;;29.07;14.97;;;7.30;99.90;;;;;;5055359;28;21721;-51
2022/12/21 08:51:14;;;;;;;29.90;15.17;;;7.50;99.90;;;;;;5054995;28;20224;-52
2022/12/21 08:53:44;;;;;;;27.07;14.47;;;7.50;99.90;;;;;;5055076;28;20231;-51
2022/12/21 08:56:18;;;;;;;25.87;14.37;;;7.50;99.90;;;;;;5052579;28;20228;-51
2022/12/21 08:58:46;;;;;;;26.13;13.60;;;7.40;99.90;;;;;;5054981;28;20238;-50
2022/12/21 09:01:18;;;;;;;27.33;15.07;;;7.40;99.90;;;;;;5054501;28;20228;-50
2022/12/21 09:03:46;;;;;;;24.50;12.67;;;7.40;99.90;;;;;;5054761;28;20630;-49
2022/12/21 09:06:15;;;;;;;25.70;13.30;;;7.70;99.90;;;;;;5054288;28;20606;-48
2022/12/21 09:08:45;;;;;;;24.47;14.63;;;7.70;99.90;;;;;;5052695;28;20227;-49
2022/12/21 09:11:15;;;;;;;30.27;15.13;;;7.50;99.90;;;;;;5054019;28;20219;-50
2022/12/21 09:13:44;;;;;;;29.67;15.60;;;7.40;99.90;;;;;;5054768;28;20231;-52
2022/12/21 09:16:14;;;;;;;29.37;15.03;;;7.40;99.90;;;;;;5054875;28;20235;-51
2022/12/21 09:18:43;;;;;;;26.57;15.20;;;7.40;99.90;;;;;;5054306;28;20239;-51
2022/12/21 09:21:12;;;;;;;35.40;17.13;;;7.50;99.90;;;;;;5054390;28;20314;-50
2022/12/21 09:23:40;;;;;;;30.50;16.17;;;7.50;99.90;;;;;;5054526;28;20682;-50
2022/12/21 09:26:10;;;;;;;35.60;17.60;;;7.60;99.90;;;;;;5054542;28;20246;-52
2022/12/21 09:28:38;;;;;;;34.17;16.20;;;7.60;99.90;;;;;;5053531;28;20232;-51
2022/12/21 09:31:08;;;;;;;34.57;18.00;;;7.70;99.90;;;;;;5053928;28;20227;-49
2022/12/21 09:33:37;;;;;;;36.03;18.03;;;7.60;99.90;;;;;;5053769;28;20236;-51
2022/12/21 09:36:06;;;;;;;36.63;16.87;;;7.60;99.90;;;;;;5054347;28;20277;-51
2022/12/21 09:38:34;;;;;;;34.33;18.03;;;7.60;99.90;;;;;;5054296;28;20235;-50
2022/12/21 09:41:03;;;;;;;39.40;19.47;;;7.60;99.90;;;;;;5047593;28;20712;-51
2022/12/21 09:43:44;;;;;;;35.77;16.80;;;7.60;99.90;;;;;;5064570;28;20222;-49
2022/12/21 09:46:14;;;;;;;32.63;16.17;;;7.60;99.90;;;;;;5063419;28;20238;-49
2022/12/21 09:48:47;;;;;;;40.73;18.43;;;7.60;99.90;;;;;;5066698;28;20231;-50
2022/12/21 09:51:19;;;;;;;40.50;18.80;;;7.70;99.90;;;;;;5066503;28;20227;-52
2022/12/21 09:53:50;;;;;;;38.60;19.30;;;7.60;99.90;;;;;;5062511;28;20223;-48
2022/12/21 09:56:21;;;;;;;38.73;17.83;;;7.60;99.90;;;;;;5065727;28;20226;-53
2022/12/21 09:58:53;;;;;;;53.50;18.97;;;7.70;99.90;;;;;;5064031;28;20698;-50
2022/12/21 10:01:37;;;;;;;47.90;18.50;;;7.70;99.90;;;;;;5065660;28;20235;-55
2022/12/21 10:04:33;;;;;;;45.17;19.03;;;7.70;99.90;;;;;;5065161;28;20231;-53
2022/12/21 10:07:44;;;;;;;44.07;19.83;;;7.70;99.90;;;;;;5067145;28;20227;-52
2022/12/21 10:10:20;;;;;;;49.20;20.30;;;7.60;99.90;;;;;;5063715;28;20242;-52
2022/12/21 10:12:56;;;;;;;46.50;19.73;;;7.70;99.90;;;;;;5065126;28;20256;-49
2022/12/21 10:15:35;;;;;;;41.23;18.00;;;7.70;99.90;;;;;;5065996;28;20227;-51
2022/12/21 10:18:12;;;;;;;51.67;18.23;;;7.70;99.90;;;;;;5067409;28;20230;-51
2022/12/21 10:20:54;;;;;;;63.67;19.57;;;7.80;99.90;;;;;;5066834;28;20563;-53
2022/12/21 10:23:27;;;;;;;51.53;18.73;;;7.80;99.90;;;;;;5067962;28;20261;-54
2022/12/21 10:25:57;;;;;;;57.80;20.27;;;7.80;99.90;;;;;;5068206;28;20231;-50
2022/12/21 10:28:45;;;;;;;53.20;19.83;;;7.80;99.90;;;;;;5065209;28;20215;-52
2022/12/21 10:31:19;;;;;;;52.37;19.67;;;7.80;99.90;;;;;;5066242;28;20231;-52
2022/12/21 10:33:51;;;;;;;57.37;21.90;;;7.80;99.90;;;;;;5064088;28;20623;-48
2022/12/21 10:36:22;;;;;;;54.97;21.83;;;7.80;99.90;;;;;;5066848;28;20602;-52
2022/12/21 10:38:50;;;;;;;62.90;23.40;;;7.80;99.90;;;;;;5067551;28;20238;-49
2022/12/21 10:41:22;;;;;;;51.40;19.40;;;7.90;99.90;;;;;;5065502;28;20592;-51
2022/12/21 10:43:52;;;;;;;57.20;22.87;;;7.90;99.90;;;;;;5065204;28;20223;-50
2022/12/21 10:46:24;;;;;;;58.27;21.77;;;7.90;99.90;;;;;;5067927;28;20234;-50
2022/12/21 10:48:59;;;;;;;64.03;23.53;;;7.90;99.90;;;;;;5067801;28;20285;-49
2022/12/21 10:51:32;;;;;;;52.80;21.50;;;8.00;99.90;;;;;;5066920;28;20822;-51
2022/12/21 10:54:02;;;;;;;58.17;23.90;;;8.00;99.90;;;;;;5066303;28;20702;-51
2022/12/21 10:56:32;;;;;;;61.03;23.07;;;8.00;99.90;;;;;;5065974;28;20245;-52
2022/12/21 10:59:06;;;;;;;60.20;23.37;;;8.00;99.90;;;;;;5063492;28;20584;-51
2022/12/21 11:01:36;;;;;;;57.50;22.50;;;7.90;99.90;;;;;;5064105;28;20231;-52
2022/12/21 11:04:11;;;;;;;62.20;24.73;;;7.90;99.90;;;;;;5064272;28;20232;-53
2022/12/21 11:06:40;;;;;;;65.10;23.43;;;7.90;99.90;;;;;;5064766;28;20222;-54
2022/12/21 11:09:28;;;;;;;70.00;25.90;;;8.00;99.90;;;;;;5066118;28;20234;-51
2022/12/21 11:11:56;;;;;;;62.60;23.60;;;8.10;99.90;;;;;;5066187;28;20231;-53
2022/12/21 11:14:24;;;;;;;58.77;24.30;;;8.10;99.90;;;;;;5065822;28;20242;-51
2022/12/21 11:17:01;;;;;;;66.60;25.87;;;8.10;99.90;;;;;;5066354;28;20234;-52
2022/12/21 11:19:36;;;;;;;67.30;26.07;;;8.10;99.90;;;;;;5065984;28;20292;-51
2022/12/21 11:22:08;;;;;;;65.20;24.80;;;8.10;99.90;;;;;;5061493;28;20263;-52
2022/12/21 11:24:58;;;;;;;66.53;25.43;;;8.10;99.90;;;;;;5063870;28;20265;-53
2022/12/21 11:27:28;;;;;;;64.07;25.03;;;8.10;99.90;;;;;;5062378;28;21280;-51
2022/12/21 11:30:00;;;;;;;64.03;26.17;;;8.10;99.90;;;;;;5064334;28;20234;-51
2022/12/21 11:32:30;;;;;;;56.53;23.17;;;8.20;99.90;;;;;;5063767;28;20598;-50
2022/12/21 11:35:01;;;;;;;51.63;21.80;;;8.10;99.90;;;;;;5061793;28;20233;-54
2022/12/21 11:37:44;;;;;;;47.20;20.20;;;8.10;99.90;;;;;;5066731;28;20273;-49
2022/12/21 11:40:17;;;;;;;49.90;20.80;;;8.10;99.90;;;;;;5064212;28;20235;-51
2022/12/21 11:42:55;;;;;;;51.47;20.37;;;8.00;99.90;;;;;;5062060;28;20231;-51
2022/12/21 11:45:26;;;;;;;46.60;19.43;;;8.00;99.90;;;;;;5065554;28;20242;-53
2022/12/21 11:48:10;;;;;;;47.87;19.67;;;8.00;99.90;;;;;;5066447;28;20228;-49
2022/12/21 11:50:51;;;;;;;44.77;18.10;;;8.10;99.90;;;;;;5066673;28;20222;-55
2022/12/21 11:53:42;;;;;;;53.00;21.13;;;8.10;99.90;;;;;;5064363;28;20598;-52
2022/12/21 11:56:21;;;;;;;47.70;19.87;;;8.10;99.90;;;;;;5062419;28;20242;-52
2022/12/21 11:59:06;;;;;;;49.57;21.23;;;8.20;99.90;;;;;;5061845;28;20242;-52
2022/12/21 12:01:47;;;;;;;56.77;24.80;;;8.20;99.90;;;;;;5058588;28;20234;-51
2022/12/21 12:04:33;;;;;;;51.50;21.70;;;8.10;99.90;;;;;;5063217;28;20231;-51
2022/12/21 12:07:29;;;;;;;59.40;23.77;;;8.10;99.90;;;;;;5063769;28;20226;-52
2022/12/21 12:10:24;;;;;;;53.37;22.23;;;8.10;99.90;;;;;;5063592;28;20706;-49
2022/12/21 12:13:04;;;;;;;58.20;23.90;;;8.20;99.90;;;;;;5061058;28;20703;-51
2022/12/21 12:15:40;;;;;;;67.03;25.90;;;8.20;99.90;;;;;;5069943;28;20225;-50
2022/12/21 12:18:26;;;;;;;58.53;23.33;;;8.10;99.90;;;;;;5069442;28;20235;-53
2022/12/21 12:21:32;;;;;;;52.60;22.50;;;8.20;99.90;;;;;;5070443;28;20699;-51
2022/12/21 12:24:34;;;;;;;56.10;23.60;;;8.20;99.90;;;;;;4988170;28;20234;-51
2022/12/21 12:27:16;;;;;;;57.97;22.83;;;8.20;99.90;;;;;;5069542;28;20230;-52
2022/12/21 12:29:57;;;;;;;56.47;23.13;;;8.30;99.90;;;;;;5068545;28;20223;-52
2022/12/21 12:32:37;;;;;;;65.20;25.27;;;8.30;99.90;;;;;;5067484;28;20223;-51
2022/12/21 12:35:35;;;;;;;60.90;24.70;;;8.30;99.90;;;;;;5069163;28;20318;-51
2022/12/21 12:38:14;;;;;;;60.93;24.00;;;8.40;99.90;;;;;;5069173;28;20228;-49
2022/12/21 12:40:56;;;;;;;54.13;23.13;;;8.40;99.90;;;;;;5069251;28;21236;-51
2022/12/21 12:43:36;;;;;;;62.70;25.33;;;8.50;99.90;;;;;;5068979;28;20219;-51
2022/12/21 12:46:16;;;;;;;57.97;23.97;;;8.40;99.90;;;;;;5070089;28;20242;-52
2022/12/21 12:48:51;;;;;;;58.73;23.17;;;8.50;99.90;;;;;;5068266;28;20223;-51
2022/12/21 12:51:27;;;;;;;60.07;25.20;;;8.50;99.90;;;;;;5069810;28;20337;-50
2022/12/21 12:54:06;;;;;;;54.53;23.63;;;8.50;99.90;;;;;;5067881;28;20703;-51
2022/12/21 12:56:44;;;;;;;58.83;24.67;;;8.40;99.90;;;;;;5069018;28;20226;-51
2022/12/21 12:59:22;;;;;;;52.60;23.20;;;8.40;99.90;;;;;;5065877;28;20216;-51
2022/12/21 13:01:55;;;;;;;60.80;24.57;;;8.50;99.90;;;;;;5054681;28;20224;-52
2022/12/21 13:05:02;;;;;;;55.87;24.33;;;8.50;99.90;;;;;;5055036;28;20581;-51
2022/12/21 13:07:41;;;;;;;59.00;24.43;;;8.50;99.90;;;;;;5055299;28;20236;-51
2022/12/21 13:10:18;;;;;;;60.53;25.93;;;8.50;99.90;;;;;;5049938;28;20295;-53
2022/12/21 13:12:52;;;;;;;57.50;23.70;;;8.40;99.90;;;;;;5035024;28;20232;-52
2022/12/21 13:15:28;;;;;;;54.30;24.10;;;8.40;99.90;;;;;;5034975;28;20273;-51
2022/12/21 13:18:02;;;;;;;55.40;23.63;;;8.40;99.90;;;;;;5034833;28;20238;-52
2022/12/21 13:20:32;;;;;;;55.57;24.10;;;8.40;99.90;;;;;;5034802;28;20242;-52